createdAt,value
2022-09-11T00:01:09.431Z,16.60
2022-09-11T00:03:36.976Z,16.10
2022-09-11T00:06:04.914Z,16.42
2022-09-11T00:08:32.137Z,16.15
2022-09-11T00:11:04.418Z,15.15
2022-09-11T00:13:31.656Z,14.90
2022-09-11T00:15:59.009Z,18.40
2022-09-11T00:18:29.336Z,14.30
2022-09-11T00:20:58.432Z,16.25
2022-09-11T00:23:27.222Z,15.93
2022-09-11T00:25:54.502Z,18.13
2022-09-11T00:28:23.442Z,16.10
2022-09-11T00:31:01.546Z,15.52
2022-09-11T00:33:29.209Z,15.77
2022-09-11T00:35:58.656Z,16.15
2022-09-11T00:38:29.538Z,15.43
2022-09-11T00:41:00.723Z,17.38
2022-09-11T00:43:29.212Z,20.42
2022-09-11T00:45:58.825Z,16.17
2022-09-11T00:48:29.883Z,14.05
2022-09-11T00:50:57.776Z,17.37
2022-09-11T00:53:26.141Z,14.52
2022-09-11T00:55:55.568Z,14.90
2022-09-11T00:58:24.966Z,15.32
2022-09-11T01:00:53.691Z,13.75
2022-09-11T01:03:21.065Z,14.47
2022-09-11T01:05:48.395Z,16.23
2022-09-11T01:08:15.827Z,15.35
2022-09-11T01:10:50.702Z,17.20
2022-09-11T01:13:27.847Z,15.95
2022-09-11T01:16:04.112Z,16.63
2022-09-11T01:18:34.327Z,16.92
2022-09-11T01:21:07.723Z,15.73
2022-09-11T01:23:37.820Z,16.00
2022-09-11T01:26:14.469Z,15.57
2022-09-11T01:28:46.596Z,17.57
2022-09-11T01:31:16.810Z,18.15
2022-09-11T01:33:47.829Z,16.35
2022-09-11T01:36:20.249Z,17.67
2022-09-11T01:38:51.196Z,16.15
2022-09-11T01:41:30.946Z,16.90
2022-09-11T01:44:07.865Z,18.38
2022-09-11T01:46:40.002Z,15.82
2022-09-11T01:49:11.761Z,18.23
2022-09-11T01:51:40.711Z,18.42
2022-09-11T01:54:11.820Z,16.60
2022-09-11T01:56:44.778Z,20.40
2022-09-11T01:59:14.619Z,18.80
2022-09-11T02:01:44.288Z,20.05
2022-09-11T02:04:16.586Z,17.77
2022-09-11T02:06:46.436Z,21.37
2022-09-11T02:09:17.167Z,16.42
2022-09-11T02:11:45.509Z,23.00
2022-09-11T02:14:16.399Z,21.33
2022-09-11T02:16:51.713Z,23.95
2022-09-11T02:19:26.395Z,21.17
2022-09-11T02:21:54.229Z,18.80
2022-09-11T02:24:25.308Z,21.25
2022-09-11T02:27:02.720Z,17.38
2022-09-11T02:29:31.909Z,20.92
2022-09-11T02:32:00.872Z,20.80
2022-09-11T02:34:30.319Z,23.38
2022-09-11T02:37:00.595Z,24.33
2022-09-11T02:39:43.257Z,19.88
2022-09-11T02:42:19.589Z,22.48
2022-09-11T02:44:54.924Z,24.07
2022-09-11T02:47:32.872Z,21.25
2022-09-11T02:50:06.059Z,25.02
2022-09-11T02:52:43.143Z,20.15
2022-09-11T02:55:20.336Z,24.92
2022-09-11T02:57:52.213Z,20.87
2022-09-11T03:00:19.842Z,26.25
2022-09-11T03:02:48.005Z,21.17
2022-09-11T03:05:15.749Z,22.58
2022-09-11T03:07:43.038Z,23.58
2022-09-11T03:10:11.681Z,24.73
2022-09-11T03:12:40.064Z,23.45
2022-09-11T03:15:07.771Z,21.35
2022-09-11T03:17:35.091Z,22.42
2022-09-11T03:20:03.378Z,22.42
2022-09-11T03:22:30.845Z,22.53
2022-09-11T03:24:59.033Z,22.70
2022-09-11T03:27:30.066Z,23.30
2022-09-11T03:29:58.720Z,26.40
2022-09-11T03:32:25.989Z,23.73
2022-09-11T03:34:53.216Z,22.47
2022-09-11T03:37:20.505Z,20.63
2022-09-11T03:39:48.368Z,22.25
2022-09-11T03:42:15.986Z,24.13
2022-09-11T03:44:45.015Z,23.27
2022-09-11T03:47:12.595Z,24.07
2022-09-11T03:49:40.246Z,24.60
2022-09-11T03:52:07.419Z,23.90
2022-09-11T03:54:35.555Z,24.83
2022-09-11T03:57:03.131Z,28.15
2022-09-11T03:59:31.106Z,23.97
2022-09-11T04:01:58.300Z,23.20
2022-09-11T04:04:25.616Z,24.05
2022-09-11T04:06:52.811Z,24.42
2022-09-11T04:09:20.151Z,25.85
2022-09-11T04:11:50.716Z,22.83
2022-09-11T04:14:25.770Z,22.38
2022-09-11T04:16:56.274Z,24.23
2022-09-11T04:19:23.745Z,24.73
2022-09-11T04:21:51.053Z,25.85
2022-09-11T04:24:18.358Z,24.57
2022-09-11T04:26:47.203Z,25.38
2022-09-11T04:29:26.792Z,25.92
2022-09-11T04:31:56.207Z,27.10
2022-09-11T04:34:26.864Z,22.60
2022-09-11T04:36:56.104Z,23.57
2022-09-11T04:39:23.889Z,23.73
2022-09-11T04:41:51.142Z,25.67
2022-09-11T04:44:20.749Z,26.10
2022-09-11T04:46:48.379Z,23.45
2022-09-11T04:49:15.881Z,22.77
2022-09-11T04:51:45.760Z,24.42
2022-09-11T04:54:16.182Z,24.48
2022-09-11T04:56:43.468Z,24.98
2022-09-11T04:59:19.578Z,24.00
2022-09-11T05:01:55.491Z,23.53
2022-09-11T05:04:26.248Z,23.27
2022-09-11T05:06:55.255Z,27.75
2022-09-11T05:09:22.498Z,23.02
2022-09-11T05:11:50.451Z,22.70
2022-09-11T05:14:18.508Z,23.93
2022-09-11T05:16:48.530Z,23.80
2022-09-11T05:19:19.018Z,28.15
2022-09-11T05:21:46.864Z,27.42
2022-09-11T05:24:14.765Z,24.13
2022-09-11T05:26:42.086Z,26.87
2022-09-11T05:29:12.211Z,25.33
2022-09-11T05:31:45.607Z,22.85
2022-09-11T05:34:15.620Z,23.42
2022-09-11T05:36:42.937Z,22.90
2022-09-11T05:39:10.668Z,23.37
2022-09-11T05:41:39.467Z,24.45
2022-09-11T05:44:07.585Z,25.42
2022-09-11T05:46:37.515Z,22.92
2022-09-11T05:49:05.920Z,23.48
2022-09-11T05:51:35.761Z,24.07
2022-09-11T05:54:03.348Z,23.77
2022-09-11T05:56:30.753Z,26.55
2022-09-11T05:59:02.565Z,25.00
2022-09-11T06:01:35.127Z,25.55
2022-09-11T06:04:13.739Z,25.67
2022-09-11T06:06:44.064Z,25.35
2022-09-11T06:09:11.280Z,26.70
2022-09-11T06:11:38.534Z,27.55
2022-09-11T06:14:06.497Z,25.15
2022-09-11T06:16:34.401Z,24.07
2022-09-11T06:19:09.550Z,25.25
2022-09-11T06:21:36.928Z,26.55
2022-09-11T06:24:15.103Z,24.83
2022-09-11T06:26:46.503Z,27.52
2022-09-11T06:29:16.028Z,24.80
2022-09-11T06:31:49.134Z,28.40
2022-09-11T06:34:17.543Z,23.92
2022-09-11T06:36:48.668Z,25.20
2022-09-11T06:39:20.438Z,27.70
2022-09-11T06:41:47.826Z,22.83
2022-09-11T06:44:16.019Z,24.48
2022-09-11T06:46:44.304Z,29.17
2022-09-11T06:49:14.408Z,26.95
2022-09-11T06:52:00.002Z,24.50
2022-09-11T06:54:28.388Z,23.20
2022-09-11T06:56:56.828Z,22.20
2022-09-11T06:59:24.584Z,23.77
2022-09-11T07:01:52.884Z,23.13
2022-09-11T07:04:23.369Z,23.95
2022-09-11T07:06:51.113Z,22.43
2022-09-11T07:09:18.543Z,22.95
2022-09-11T07:11:53.829Z,23.83
2022-09-11T07:14:21.629Z,25.77
2022-09-11T07:16:54.982Z,20.63
2022-09-11T07:19:25.432Z,17.30
2022-09-11T07:21:52.780Z,19.05
2022-09-11T07:24:21.853Z,20.08
2022-09-11T07:26:49.703Z,16.70
2022-09-11T07:29:22.725Z,18.52
2022-09-11T07:31:51.747Z,16.67
2022-09-11T07:34:19.391Z,17.23
2022-09-11T07:36:51.683Z,16.00
2022-09-11T07:39:19.609Z,18.88
2022-09-11T07:42:07.406Z,14.35
2022-09-11T07:44:36.669Z,18.03
2022-09-11T07:47:04.179Z,14.73
2022-09-11T07:49:36.633Z,16.92
2022-09-11T07:52:04.986Z,13.73
2022-09-11T07:54:39.279Z,14.77
2022-09-11T07:57:07.190Z,17.80
2022-09-11T07:59:34.960Z,14.40
2022-09-11T08:02:04.199Z,12.75
2022-09-11T08:04:31.804Z,12.48
2022-09-11T08:06:59.123Z,11.95
2022-09-11T08:09:30.766Z,9.97
2022-09-11T08:12:01.415Z,9.50
2022-09-11T08:14:28.999Z,10.02
2022-09-11T08:17:01.603Z,10.73
2022-09-11T08:19:31.044Z,10.75
2022-09-11T08:22:01.668Z,8.13
2022-09-11T08:24:33.855Z,10.93
2022-09-11T08:27:05.862Z,9.32
2022-09-11T08:29:35.681Z,8.10
2022-09-11T08:32:03.628Z,7.03
2022-09-11T08:34:33.145Z,6.27
2022-09-11T08:37:00.381Z,7.82
2022-09-11T08:39:31.513Z,5.85
2022-09-11T08:42:06.908Z,8.00
2022-09-11T08:44:47.823Z,5.45
2022-09-11T08:47:30.145Z,6.00
2022-09-11T08:50:05.028Z,4.88
2022-09-11T08:52:35.881Z,4.95
2022-09-11T08:55:03.406Z,6.15
2022-09-11T08:57:34.435Z,5.43
2022-09-11T09:00:09.289Z,6.57
2022-09-11T09:02:46.828Z,7.00
2022-09-11T09:05:14.577Z,5.50
2022-09-11T09:07:41.983Z,5.93
2022-09-11T09:10:09.214Z,5.60
2022-09-11T09:12:49.596Z,5.30
2022-09-11T09:15:35.183Z,6.68
2022-09-11T09:18:04.998Z,4.93
2022-09-11T09:20:35.154Z,5.15
2022-09-11T09:23:22.345Z,4.25
2022-09-11T09:25:52.736Z,3.53
2022-09-11T09:28:25.410Z,2.53
2022-09-11T09:30:57.438Z,4.63
2022-09-11T09:33:35.269Z,5.88
2022-09-11T09:36:25.920Z,8.52
2022-09-11T09:38:54.098Z,5.23
2022-09-11T09:41:31.194Z,4.72
2022-09-11T09:43:58.399Z,3.63
2022-09-11T09:46:41.694Z,3.88
2022-09-11T09:49:11.147Z,3.95
2022-09-11T09:51:39.858Z,3.40
2022-09-11T09:54:07.420Z,4.10
2022-09-11T09:56:37.612Z,6.68
2022-09-11T09:59:15.868Z,2.92
2022-09-11T10:01:44.802Z,4.50
2022-09-11T10:04:16.809Z,3.63
2022-09-11T10:06:45.481Z,3.97
2022-09-11T10:09:20.897Z,4.10
2022-09-11T10:11:52.529Z,4.18
2022-09-11T10:14:49.365Z,3.95
2022-09-11T10:17:20.368Z,4.87
2022-09-11T10:19:47.653Z,5.85
2022-09-11T10:22:21.868Z,5.72
2022-09-11T10:24:58.285Z,4.05
2022-09-11T10:27:28.826Z,4.05
2022-09-11T10:29:57.505Z,4.70
2022-09-11T10:32:24.791Z,3.03
2022-09-11T10:34:53.439Z,3.50
2022-09-11T10:37:31.629Z,5.07
2022-09-11T10:40:08.236Z,3.40
2022-09-11T10:42:37.991Z,2.97
2022-09-11T10:45:33.778Z,3.08
2022-09-11T10:48:15.273Z,4.72
2022-09-11T10:50:43.980Z,5.03
2022-09-11T10:53:23.951Z,4.30
2022-09-11T10:55:58.674Z,2.30
2022-09-11T10:58:29.032Z,4.18
2022-09-11T11:00:56.680Z,5.28
2022-09-11T11:03:27.743Z,4.03
2022-09-11T11:05:58.164Z,5.78
2022-09-11T11:08:46.218Z,3.70
2022-09-11T11:11:25.402Z,4.40
2022-09-11T11:13:52.839Z,4.57
2022-09-11T11:16:47.546Z,4.38
2022-09-11T11:19:17.872Z,8.05
2022-09-11T11:22:03.981Z,5.43
2022-09-11T11:24:50.073Z,3.95
2022-09-11T11:27:20.383Z,5.22
2022-09-11T11:29:56.717Z,2.17
2022-09-11T11:32:28.013Z,2.53
2022-09-11T11:35:01.621Z,2.97
2022-09-11T11:37:34.532Z,2.75
2022-09-11T11:40:11.210Z,3.25
2022-09-11T11:42:39.995Z,3.20
2022-09-11T11:45:11.624Z,6.57
2022-09-11T11:47:42.497Z,2.10
2022-09-11T11:50:10.071Z,2.05
2022-09-11T11:52:43.417Z,4.03
2022-09-11T11:55:22.077Z,3.90
2022-09-11T11:57:54.355Z,4.30
2022-09-11T12:00:21.991Z,6.97
2022-09-11T12:02:52.228Z,3.33
2022-09-11T12:05:27.372Z,3.92
2022-09-11T12:07:54.810Z,4.07
2022-09-11T12:10:36.220Z,5.05
2022-09-11T12:13:04.607Z,4.50
2022-09-11T12:15:34.258Z,5.88
2022-09-11T12:18:03.056Z,2.67
2022-09-11T12:20:30.625Z,4.03
2022-09-11T12:22:58.402Z,3.20
2022-09-11T12:25:38.101Z,3.40
2022-09-11T12:28:21.922Z,2.80
2022-09-11T12:31:00.415Z,2.97
2022-09-11T12:33:47.204Z,3.35
2022-09-11T12:36:15.121Z,3.47
2022-09-11T12:39:02.605Z,3.63
2022-09-11T12:41:34.941Z,4.47
2022-09-11T12:44:06.626Z,3.25
2022-09-11T12:46:36.732Z,3.75
2022-09-11T12:49:23.306Z,3.13
2022-09-11T12:51:52.809Z,5.23
2022-09-11T12:54:33.371Z,3.78
2022-09-11T12:57:09.061Z,2.65
2022-09-11T12:59:41.059Z,3.15
2022-09-11T13:02:20.531Z,3.45
2022-09-11T13:04:48.656Z,2.27
2022-09-11T13:07:26.589Z,3.42
2022-09-11T13:09:57.155Z,2.38
2022-09-11T13:12:24.572Z,2.58
2022-09-11T13:14:55.070Z,3.33
2022-09-11T13:17:25.892Z,3.03
2022-09-11T13:19:54.608Z,3.05
2022-09-11T13:22:21.815Z,1.70
2022-09-11T13:24:49.656Z,4.60
2022-09-11T13:27:23.809Z,3.08
2022-09-11T13:29:51.327Z,3.33
2022-09-11T13:32:19.095Z,2.88
2022-09-11T13:34:48.432Z,4.10
2022-09-11T13:37:21.870Z,2.40
2022-09-11T13:39:49.256Z,1.92
2022-09-11T13:42:18.486Z,2.73
2022-09-11T13:44:56.290Z,3.45
2022-09-11T13:47:24.444Z,2.88
2022-09-11T13:49:54.031Z,1.50
2022-09-11T13:52:26.975Z,3.85
2022-09-11T13:54:55.522Z,3.00
2022-09-11T13:57:31.313Z,3.67
2022-09-11T14:00:00.343Z,2.92
2022-09-11T14:02:44.492Z,5.32
2022-09-11T14:05:14.713Z,3.67
2022-09-11T14:07:47.570Z,3.00
2022-09-11T14:10:24.619Z,4.32
2022-09-11T14:13:01.663Z,3.58
2022-09-11T14:15:33.627Z,2.35
2022-09-11T14:18:02.866Z,2.67
2022-09-11T14:20:30.238Z,3.10
2022-09-11T14:23:01.097Z,2.75
2022-09-11T14:25:28.934Z,2.88
2022-09-11T14:27:59.031Z,8.07
2022-09-11T14:30:27.991Z,2.80
2022-09-11T14:33:11.097Z,2.43
2022-09-11T14:35:38.410Z,3.47
2022-09-11T14:38:05.632Z,3.70
2022-09-11T14:40:32.941Z,2.55
2022-09-11T14:43:00.160Z,3.17
2022-09-11T14:45:27.403Z,3.33
2022-09-11T14:47:54.660Z,2.55
2022-09-11T14:50:24.119Z,4.75
2022-09-11T14:52:51.341Z,1.83
2022-09-11T14:55:19.553Z,4.55
2022-09-11T14:57:46.895Z,4.27
2022-09-11T15:00:15.557Z,3.65
2022-09-11T15:02:42.804Z,2.13
2022-09-11T15:05:15.905Z,3.17
2022-09-11T15:07:46.354Z,4.63
2022-09-11T15:10:16.965Z,1.93
2022-09-11T15:12:44.657Z,4.07
2022-09-11T15:15:15.738Z,2.53
2022-09-11T15:17:42.978Z,3.90
2022-09-11T15:20:10.470Z,2.83
2022-09-11T15:22:38.281Z,4.63
2022-09-11T15:25:05.950Z,3.13
2022-09-11T15:27:33.275Z,2.63
2022-09-11T15:30:00.664Z,3.88
2022-09-11T15:32:27.984Z,3.25
2022-09-11T15:34:55.341Z,2.27
2022-09-11T15:37:23.895Z,3.20
2022-09-11T15:39:53.263Z,4.35
2022-09-11T15:42:26.642Z,5.20
2022-09-11T15:44:57.626Z,7.32
2022-09-11T15:47:38.723Z,5.67
2022-09-11T15:50:07.837Z,5.55
2022-09-11T15:52:39.613Z,4.28
2022-09-11T15:55:18.826Z,2.47
2022-09-11T15:57:53.362Z,2.90
2022-09-11T16:00:38.603Z,5.03
2022-09-11T16:03:07.745Z,1.88
2022-09-11T16:05:43.327Z,3.53
2022-09-11T16:08:15.609Z,4.38
2022-09-11T16:10:45.482Z,2.10
2022-09-11T16:13:15.683Z,3.43
2022-09-11T16:15:43.404Z,3.35
2022-09-11T16:18:11.929Z,3.53
2022-09-11T16:20:43.695Z,1.70
2022-09-11T16:23:11.751Z,3.45
2022-09-11T16:25:42.640Z,3.87
2022-09-11T16:28:18.208Z,2.92
2022-09-11T16:30:53.089Z,2.55
2022-09-11T16:33:24.385Z,6.63
2022-09-11T16:36:03.098Z,3.35
2022-09-11T16:38:30.676Z,2.90
2022-09-11T16:41:03.082Z,2.50
2022-09-11T16:43:37.840Z,3.75
2022-09-11T16:46:06.696Z,2.28
2022-09-11T16:48:38.103Z,3.17
2022-09-11T16:51:06.342Z,2.20
2022-09-11T16:53:38.022Z,3.63
2022-09-11T16:56:06.688Z,3.20
2022-09-11T16:58:35.239Z,4.35
2022-09-11T17:01:15.597Z,4.97
2022-09-11T17:03:53.845Z,2.77
2022-09-11T17:06:37.020Z,6.68
2022-09-11T17:09:07.058Z,5.57
2022-09-11T17:11:37.443Z,3.65
2022-09-11T17:14:05.069Z,3.78
2022-09-11T17:16:45.052Z,4.47
2022-09-11T17:19:18.735Z,2.92
2022-09-11T17:21:51.298Z,3.45
2022-09-11T17:24:21.822Z,4.70
2022-09-11T17:26:54.528Z,2.42
2022-09-11T17:29:21.898Z,2.20
2022-09-11T17:31:54.360Z,2.80
2022-09-11T17:34:28.513Z,2.88
2022-09-11T17:36:55.699Z,2.90
2022-09-11T17:39:22.906Z,2.30
2022-09-11T17:41:50.165Z,6.27
2022-09-11T17:44:17.383Z,2.53
2022-09-11T17:46:44.591Z,2.78
2022-09-11T17:49:11.797Z,4.28
2022-09-11T17:51:39.001Z,5.70
2022-09-11T17:54:06.724Z,3.40
2022-09-11T17:56:34.035Z,2.78
2022-09-11T17:59:01.453Z,2.90
2022-09-11T18:01:30.461Z,3.05
2022-09-11T18:03:58.793Z,4.22
2022-09-11T18:06:30.109Z,3.30
2022-09-11T18:09:04.520Z,4.32
2022-09-11T18:11:31.847Z,3.10
2022-09-11T18:14:02.046Z,4.57
2022-09-11T18:16:29.366Z,4.93
2022-09-11T18:18:56.600Z,3.47
2022-09-11T18:21:25.840Z,6.28
2022-09-11T18:23:53.155Z,4.10
2022-09-11T18:26:22.073Z,4.50
2022-09-11T18:28:50.365Z,5.18
2022-09-11T18:31:17.716Z,4.10
2022-09-11T18:33:45.107Z,4.05
2022-09-11T18:36:13.986Z,5.03
2022-09-11T18:38:41.275Z,4.32
2022-09-11T18:41:08.477Z,4.78
2022-09-11T18:43:35.820Z,7.77
2022-09-11T18:46:03.796Z,4.78
2022-09-11T18:48:33.561Z,5.35
2022-09-11T18:51:10.498Z,4.35
2022-09-11T18:53:38.732Z,3.70
2022-09-11T18:56:10.588Z,5.67
2022-09-11T18:58:39.466Z,5.53
2022-09-11T19:01:18.114Z,5.75
2022-09-11T19:03:46.171Z,5.60
2022-09-11T19:06:17.806Z,5.30
2022-09-11T19:08:47.216Z,5.27
2022-09-11T19:11:16.870Z,4.68
2022-09-11T19:13:45.797Z,6.57
2022-09-11T19:16:14.862Z,4.13
2022-09-11T19:18:46.018Z,6.05
2022-09-11T19:21:20.934Z,5.67
2022-09-11T19:23:52.053Z,6.95
2022-09-11T19:26:22.991Z,5.70
2022-09-11T19:28:58.006Z,5.80
2022-09-11T19:31:36.491Z,5.82
2022-09-11T19:34:04.175Z,4.37
2022-09-11T19:36:32.811Z,6.40
2022-09-11T19:39:04.617Z,5.07
2022-09-11T19:41:33.609Z,7.60
2022-09-11T19:44:02.286Z,5.47
2022-09-11T19:46:30.399Z,5.60
2022-09-11T19:49:03.507Z,5.95
2022-09-11T19:51:32.444Z,6.72
2022-09-11T19:54:03.609Z,6.82
2022-09-11T19:56:31.678Z,7.55
2022-09-11T19:59:00.331Z,8.87
2022-09-11T20:01:29.443Z,6.60
2022-09-11T20:03:57.334Z,7.50
2022-09-11T20:06:26.570Z,8.20
2022-09-11T20:09:13.787Z,12.55
2022-09-11T20:11:43.805Z,10.27
2022-09-11T20:14:12.213Z,7.38
2022-09-11T20:16:39.782Z,9.48
2022-09-11T20:19:07.233Z,8.07
2022-09-11T20:21:36.182Z,8.90
2022-09-11T20:24:08.471Z,9.57
2022-09-11T20:26:36.071Z,9.27
2022-09-11T20:29:07.256Z,8.82
2022-09-11T20:31:40.548Z,8.45
2022-09-11T20:34:16.613Z,10.82
2022-09-11T20:36:44.057Z,10.13
2022-09-11T20:39:13.717Z,8.50
2022-09-11T20:41:41.614Z,9.85
2022-09-11T20:44:08.913Z,7.57
2022-09-11T20:46:36.600Z,9.35
2022-09-11T20:49:04.647Z,9.63
2022-09-11T20:51:32.998Z,9.55
2022-09-11T20:54:00.917Z,8.93
2022-09-11T20:56:28.650Z,8.95
2022-09-11T20:58:57.547Z,9.45
2022-09-11T21:01:25.940Z,8.53
2022-09-11T21:03:54.244Z,9.65
2022-09-11T21:06:25.916Z,10.73
2022-09-11T21:08:55.918Z,11.43
2022-09-11T21:11:23.780Z,9.80
2022-09-11T21:13:51.262Z,9.60
2022-09-11T21:16:20.096Z,10.63
2022-09-11T21:18:54.952Z,10.30
2022-09-11T21:21:22.893Z,10.68
2022-09-11T21:23:50.248Z,11.48
2022-09-11T21:26:18.213Z,9.27
2022-09-11T21:28:45.755Z,10.48
2022-09-11T21:31:13.101Z,9.77
2022-09-11T21:33:41.086Z,10.15
2022-09-11T21:36:08.569Z,12.30
2022-09-11T21:38:36.816Z,12.47
2022-09-11T21:41:05.563Z,10.27
2022-09-11T21:43:32.870Z,13.57
2022-09-11T21:46:00.165Z,11.43
2022-09-11T21:48:28.336Z,11.48
2022-09-11T21:50:59.058Z,10.83
2022-09-11T21:53:26.443Z,11.25
2022-09-11T21:55:53.639Z,12.55
2022-09-11T21:58:21.407Z,10.52
2022-09-11T22:00:49.308Z,10.85
2022-09-11T22:03:18.404Z,9.37
2022-09-11T22:05:47.680Z,10.93
2022-09-11T22:08:16.110Z,12.02
2022-09-11T22:10:48.500Z,12.75
2022-09-11T22:13:16.318Z,13.57
2022-09-11T22:15:44.797Z,12.17
2022-09-11T22:18:12.265Z,13.48
2022-09-11T22:20:40.112Z,13.45
2022-09-11T22:23:07.755Z,15.70
2022-09-11T22:25:36.963Z,15.02
2022-09-11T22:28:07.710Z,17.57
2022-09-11T22:30:35.231Z,16.65
2022-09-11T22:33:02.492Z,17.30
2022-09-11T22:35:29.813Z,23.35
2022-09-11T22:37:57.131Z,19.95
2022-09-11T22:40:24.455Z,21.13
2022-09-11T22:42:51.825Z,23.23
2022-09-11T22:45:19.159Z,19.70
2022-09-11T22:47:46.431Z,18.27
2022-09-11T22:50:13.641Z,19.05
2022-09-11T22:52:41.279Z,18.80
2022-09-11T22:55:09.092Z,19.60
2022-09-11T22:57:39.387Z,21.00
2022-09-11T23:00:07.600Z,20.25
2022-09-11T23:02:36.072Z,17.38
2022-09-11T23:05:22.725Z,17.33
2022-09-11T23:07:50.617Z,17.95
2022-09-11T23:10:21.905Z,18.23
2022-09-11T23:12:49.276Z,16.55
2022-09-11T23:15:19.833Z,15.98
2022-09-11T23:17:47.130Z,18.00
2022-09-11T23:20:14.629Z,18.00
2022-09-11T23:22:41.876Z,19.92
2022-09-11T23:25:09.295Z,16.85
2022-09-11T23:27:36.595Z,16.48
2022-09-11T23:30:04.401Z,19.13
2022-09-11T23:32:31.661Z,16.95
2022-09-11T23:34:58.919Z,17.70
2022-09-11T23:37:26.336Z,20.55
2022-09-11T23:39:53.755Z,20.65
2022-09-11T23:42:21.060Z,18.43
2022-09-11T23:44:48.275Z,20.55
2022-09-11T23:47:15.596Z,17.70
2022-09-11T23:49:43.458Z,17.67
2022-09-11T23:52:10.674Z,19.27
2022-09-11T23:54:37.936Z,19.77
2022-09-11T23:57:05.750Z,18.75
2022-09-11T23:59:35.921Z,18.83
